Airfield :
LOGIN :

Register | Disclaimer

   EN    FR    IT 

 










Legend :    VFR   Marginal VFR   IFR   Intensive IFR   Very Intensive IFR
Visi :
Ceiling :
>= 8 km
>= 3000ft
5 to 8 km
1000 to 3000 ft
1500m to 5 km
500 to 1000 ft
800 to 1500m
200 to 500 ft
< 800m
< 200 ft
Symbols :   Thunderstorms  Fog  Heavy snow  Heavy precipitations  Wind > 20 kt
SIGMETs :     Misc.  Thunderstorms  Icing  Turbulence  Mountain Waves  Volcanic Ashes






- Airport Elevation : 182 ft
- IATA code : KCO


LTBQ - Cengiz Topel

CURRENT METAR :
  • 171150Z 11007KT 070V190 8000 NSC 20/12 Q1019 NOSIG

EXPIRED METARs :
  • 171050Z 11007KT 060V180 8000 NSC 19/12 Q1020 NOSIG
  • 170950Z 14004KT 100V210 8000 NSC 18/12 Q1020 NOSIG

TAF TAF LTBQ
Valid from the 17 at 12:00 until the 17 at 21:00 UTC


171040Z 1712/1721 VRB02KT 8000 NSC



MET'MAP, your aeronautical weather chart ! - Copyright ORBIFLY December 2007 - Disclaimer

ORBIFLY MET'MAP TEAM :

Programming & Development : Alexandra Zaïnal
Concept & Development : Baudouin d'Aumeries
Co-Development & Prog : Marc-Olivier Méhu
Technical & hardware support : Manuel Goepfert

Contact : metmap@orbifly.com




SOURCES & CREDITS :

   NOAA